Portada
METAR-TAF:

METAR-TAF

Aeroports :

Ísafjörður, Islàndia

latitud: 66-03-29N, longitud: 23-08-07W, altitud: 2 m

Observació

L'informe es va fer fa 1 hora i 2 minuts, a les 18:00 UTC
Vent 5 kt amb direcció variable
Temperatura 14°C
Humitat 51%
Pressió 1009 hPa
Visibilitat 10 km o més
sense núvols per sota de 1500 mi sense presència de cumulonimbus.

METAR: BIIS 051800Z VRB05KT CAVOK 14/04 Q1009 RMK ARNARNES 140 DGR 13KT

Hora: 19:02 (19:02 UTC)

Pronòstic

L'informe es va fer fa 2 hores i 41 minuts, a les 16:21 UTC
Pronòstic vàlid del 05 a les 17 UTC al 06 a les 02 UTC
Vent 2 kt amb direcció variable amb ràfegues de 22 kt
Visibilitat 10 km o més
sense núvols per sota de 1500 mi sense presència de cumulonimbus.
Evolucionant progressivament
l' 05 a les 22 UTC al 06 a les 00 UTC
Vent 2 kt amb direcció variable

TAF: BIIS 051621Z 0517/0602 VRB02G22KT CAVOK BECMG 0522/0600 VRB02KT

Observacions i pronòstics meteorològics de més de 4000 aeroports (METAR i TAF).

Les estacions disponibles són els punts grocs i vermells al mapa.

Posi el ratolí al punt desitjat per veure el nom de l'estació.

Feu clic per veure les observacions i els pronòstics meteorològics.

Per canviar el mapa: feu clic els botons verds amb una creu de color negre per apropar; al botó verd amb un guió per allunyar la imatge; o en les fletxes verdes per a mapes adjacents.


METAR-TAF: